sensor_id;sensor_type;location;lat;lon;timestamp;P1;durP1;ratioP1;P2;durP2;ratioP2
1206;SDS011;593;53.184;8.216;2023-04-01T00:01:36;7.73;;;6.63;;
1206;SDS011;593;53.184;8.216;2023-04-01T00:04:01;9.37;;;7.10;;
1206;SDS011;593;53.184;8.216;2023-04-01T00:06:27;9.90;;;7.23;;
1206;SDS011;593;53.184;8.216;2023-04-01T00:08:52;7.77;;;6.77;;
1206;SDS011;593;53.184;8.216;2023-04-01T00:11:18;9.13;;;6.70;;
1206;SDS011;593;53.184;8.216;2023-04-01T00:13:43;10.33;;;6.93;;
1206;SDS011;593;53.184;8.216;2023-04-01T00:16:09;9.33;;;8.33;;
1206;SDS011;593;53.184;8.216;2023-04-01T00:18:35;8.13;;;7.30;;
1206;SDS011;593;53.184;8.216;2023-04-01T00:21:00;6.57;;;5.90;;
1206;SDS011;593;53.184;8.216;2023-04-01T00:23:26;9.80;;;7.20;;
1206;SDS011;593;53.184;8.216;2023-04-01T00:25:51;8.97;;;6.90;;
1206;SDS011;593;53.184;8.216;2023-04-01T00:28:16;9.07;;;6.90;;
1206;SDS011;593;53.184;8.216;2023-04-01T00:30:43;7.77;;;7.00;;
1206;SDS011;593;53.184;8.216;2023-04-01T00:33:09;8.00;;;6.10;;
1206;SDS011;593;53.184;8.216;2023-04-01T00:35:34;9.20;;;7.70;;
1206;SDS011;593;53.184;8.216;2023-04-01T00:38:00;9.60;;;7.97;;
1206;SDS011;593;53.184;8.216;2023-04-01T00:40:27;8.47;;;7.40;;
1206;SDS011;593;53.184;8.216;2023-04-01T00:42:56;11.10;;;8.57;;
1206;SDS011;593;53.184;8.216;2023-04-01T00:48:02;8.43;;;7.50;;
1206;SDS011;593;53.184;8.216;2023-04-01T00:50:31;7.97;;;7.17;;
1206;SDS011;593;53.184;8.216;2023-04-01T00:53:00;8.30;;;7.10;;
1206;SDS011;593;53.184;8.216;2023-04-01T00:55:26;11.33;;;8.07;;
1206;SDS011;593;53.184;8.216;2023-04-01T00:57:55;9.13;;;7.23;;
1206;SDS011;593;53.184;8.216;2023-04-01T01:00:22;10.07;;;7.87;;
1206;SDS011;593;53.184;8.216;2023-04-01T01:02:47;10.40;;;9.03;;
1206;SDS011;593;53.184;8.216;2023-04-01T01:05:15;9.30;;;8.40;;
1206;SDS011;593;53.184;8.216;2023-04-01T01:07:45;10.13;;;9.03;;
1206;SDS011;593;53.184;8.216;2023-04-01T01:10:28;8.60;;;7.67;;
1206;SDS011;593;53.184;8.216;2023-04-01T01:15:57;13.77;;;10.13;;
1206;SDS011;593;53.184;8.216;2023-04-01T01:26:51;10.30;;;8.50;;
1206;SDS011;593;53.184;8.216;2023-04-01T01:32:20;9.80;;;7.47;;
1206;SDS011;593;53.184;8.216;2023-04-01T01:35:22;10.50;;;8.17;;
1206;SDS011;593;53.184;8.216;2023-04-01T01:37:56;9.87;;;8.10;;
1206;SDS011;593;53.184;8.216;2023-04-01T01:40:26;8.80;;;7.67;;
1206;SDS011;593;53.184;8.216;2023-04-01T01:42:55;8.33;;;7.53;;
1206;SDS011;593;53.184;8.216;2023-04-01T01:45:23;9.30;;;7.33;;
1206;SDS011;593;53.184;8.216;2023-04-01T01:47:51;9.40;;;8.07;;
1206;SDS011;593;53.184;8.216;2023-04-01T01:50:17;8.80;;;6.90;;
1206;SDS011;593;53.184;8.216;2023-04-01T01:52:44;8.70;;;7.90;;
1206;SDS011;593;53.184;8.216;2023-04-01T01:55:24;11.47;;;7.10;;
1206;SDS011;593;53.184;8.216;2023-04-01T01:57:52;9.17;;;8.23;;
1206;SDS011;593;53.184;8.216;2023-04-01T02:00:19;7.63;;;6.57;;
1206;SDS011;593;53.184;8.216;2023-04-01T02:02:46;8.50;;;7.20;;
1206;SDS011;593;53.184;8.216;2023-04-01T02:05:20;7.97;;;7.20;;
1206;SDS011;593;53.184;8.216;2023-04-01T02:07:54;10.87;;;7.40;;
1206;SDS011;593;53.184;8.216;2023-04-01T02:10:25;7.97;;;7.17;;
1206;SDS011;593;53.184;8.216;2023-04-01T02:12:56;8.47;;;7.60;;
1206;SDS011;593;53.184;8.216;2023-04-01T02:15:26;8.80;;;6.80;;
1206;SDS011;593;53.184;8.216;2023-04-01T02:17:55;10.13;;;7.77;;
1206;SDS011;593;53.184;8.216;2023-04-01T02:20:22;8.07;;;6.90;;
1206;SDS011;593;53.184;8.216;2023-04-01T02:22:52;8.50;;;7.33;;
1206;SDS011;593;53.184;8.216;2023-04-01T02:25:23;10.83;;;8.53;;
1206;SDS011;593;53.184;8.216;2023-04-01T02:27:52;7.80;;;6.93;;
1206;SDS011;593;53.184;8.216;2023-04-01T02:30:20;8.87;;;7.00;;
1206;SDS011;593;53.184;8.216;2023-04-01T02:32:46;8.40;;;7.43;;
1206;SDS011;593;53.184;8.216;2023-04-01T02:35:12;10.03;;;7.40;;
1206;SDS011;593;53.184;8.216;2023-04-01T02:37:40;9.97;;;8.53;;
1206;SDS011;593;53.184;8.216;2023-04-01T02:40:11;8.53;;;7.47;;
1206;SDS011;593;53.184;8.216;2023-04-01T02:42:37;9.80;;;8.33;;
1206;SDS011;593;53.184;8.216;2023-04-01T02:45:03;9.13;;;8.03;;
1206;SDS011;593;53.184;8.216;2023-04-01T02:47:29;8.60;;;7.37;;
1206;SDS011;593;53.184;8.216;2023-04-01T02:49:55;8.37;;;7.43;;
1206;SDS011;593;53.184;8.216;2023-04-01T02:52:26;10.00;;;7.53;;
1206;SDS011;593;53.184;8.216;2023-04-01T02:54:53;8.60;;;7.00;;
1206;SDS011;593;53.184;8.216;2023-04-01T02:57:18;11.73;;;8.30;;
1206;SDS011;593;53.184;8.216;2023-04-01T02:59:45;10.47;;;7.50;;
1206;SDS011;593;53.184;8.216;2023-04-01T03:02:10;8.57;;;7.40;;
1206;SDS011;593;53.184;8.216;2023-04-01T03:04:36;9.70;;;7.70;;
1206;SDS011;593;53.184;8.216;2023-04-01T03:07:01;11.00;;;9.27;;
1206;SDS011;593;53.184;8.216;2023-04-01T03:09:26;8.90;;;7.70;;
1206;SDS011;593;53.184;8.216;2023-04-01T03:11:53;9.77;;;8.37;;
1206;SDS011;593;53.184;8.216;2023-04-01T03:14:18;11.47;;;8.30;;
1206;SDS011;593;53.184;8.216;2023-04-01T03:16:44;11.90;;;8.47;;
1206;SDS011;593;53.184;8.216;2023-04-01T03:19:09;8.40;;;7.50;;
1206;SDS011;593;53.184;8.216;2023-04-01T03:21:34;9.77;;;7.70;;
1206;SDS011;593;53.184;8.216;2023-04-01T03:24:00;10.00;;;7.53;;
1206;SDS011;593;53.184;8.216;2023-04-01T03:26:25;10.77;;;8.53;;
1206;SDS011;593;53.184;8.216;2023-04-01T03:28:53;9.33;;;8.00;;
1206;SDS011;593;53.184;8.216;2023-04-01T03:31:19;12.97;;;8.43;;
1206;SDS011;593;53.184;8.216;2023-04-01T03:33:45;10.80;;;8.07;;
1206;SDS011;593;53.184;8.216;2023-04-01T03:36:10;11.33;;;7.97;;
1206;SDS011;593;53.184;8.216;2023-04-01T03:38:37;10.07;;;8.20;;
1206;SDS011;593;53.184;8.216;2023-04-01T03:41:04;14.00;;;9.70;;
1206;SDS011;593;53.184;8.216;2023-04-01T03:43:30;10.83;;;8.17;;
1206;SDS011;593;53.184;8.216;2023-04-01T03:45:55;10.90;;;9.13;;
1206;SDS011;593;53.184;8.216;2023-04-01T03:48:22;11.30;;;8.17;;
1206;SDS011;593;53.184;8.216;2023-04-01T03:50:48;12.40;;;8.77;;
1206;SDS011;593;53.184;8.216;2023-04-01T03:53:14;11.17;;;8.10;;
1206;SDS011;593;53.184;8.216;2023-04-01T03:55:40;10.70;;;8.10;;
1206;SDS011;593;53.184;8.216;2023-04-01T03:58:06;10.23;;;8.00;;
1206;SDS011;593;53.184;8.216;2023-04-01T04:00:31;10.50;;;8.27;;
1206;SDS011;593;53.184;8.216;2023-04-01T04:02:57;13.03;;;9.47;;
1206;SDS011;593;53.184;8.216;2023-04-01T04:05:23;10.70;;;8.43;;
1206;SDS011;593;53.184;8.216;2023-04-01T04:07:50;10.60;;;8.03;;
1206;SDS011;593;53.184;8.216;2023-04-01T04:10:16;11.80;;;7.97;;
1206;SDS011;593;53.184;8.216;2023-04-01T04:12:41;10.60;;;7.60;;
1206;SDS011;593;53.184;8.216;2023-04-01T04:15:07;11.40;;;9.60;;
1206;SDS011;593;53.184;8.216;2023-04-01T04:17:33;10.67;;;8.13;;
1206;SDS011;593;53.184;8.216;2023-04-01T04:19:58;9.13;;;8.10;;
1206;SDS011;593;53.184;8.216;2023-04-01T04:22:24;13.33;;;8.50;;
1206;SDS011;593;53.184;8.216;2023-04-01T04:24:49;10.40;;;8.30;;
1206;SDS011;593;53.184;8.216;2023-04-01T04:27:14;12.70;;;9.30;;
1206;SDS011;593;53.184;8.216;2023-04-01T04:29:40;9.80;;;6.53;;
1206;SDS011;593;53.184;8.216;2023-04-01T04:32:05;9.70;;;7.30;;
1206;SDS011;593;53.184;8.216;2023-04-01T04:34:31;8.67;;;6.50;;
1206;SDS011;593;53.184;8.216;2023-04-01T04:36:56;9.00;;;6.97;;
1206;SDS011;593;53.184;8.216;2023-04-01T04:39:21;8.30;;;6.87;;
1206;SDS011;593;53.184;8.216;2023-04-01T04:41:47;10.57;;;7.93;;
1206;SDS011;593;53.184;8.216;2023-04-01T04:44:12;9.87;;;7.57;;
1206;SDS011;593;53.184;8.216;2023-04-01T04:46:38;8.73;;;7.70;;
1206;SDS011;593;53.184;8.216;2023-04-01T04:49:04;10.10;;;7.73;;
1206;SDS011;593;53.184;8.216;2023-04-01T04:51:30;8.37;;;7.20;;
1206;SDS011;593;53.184;8.216;2023-04-01T04:53:58;11.37;;;7.53;;
1206;SDS011;593;53.184;8.216;2023-04-01T04:56:24;9.60;;;7.33;;
1206;SDS011;593;53.184;8.216;2023-04-01T04:58:50;8.93;;;7.33;;
1206;SDS011;593;53.184;8.216;2023-04-01T05:01:16;9.03;;;6.63;;
1206;SDS011;593;53.184;8.216;2023-04-01T05:03:42;10.77;;;7.20;;
1206;SDS011;593;53.184;8.216;2023-04-01T05:06:08;8.50;;;7.40;;
1206;SDS011;593;53.184;8.216;2023-04-01T05:08:35;10.93;;;7.97;;
1206;SDS011;593;53.184;8.216;2023-04-01T05:11:01;10.50;;;7.33;;
1206;SDS011;593;53.184;8.216;2023-04-01T05:13:28;11.93;;;8.50;;
1206;SDS011;593;53.184;8.216;2023-04-01T05:15:53;7.80;;;7.00;;
1206;SDS011;593;53.184;8.216;2023-04-01T05:18:19;7.90;;;6.33;;
1206;SDS011;593;53.184;8.216;2023-04-01T05:20:45;8.37;;;6.90;;
1206;SDS011;593;53.184;8.216;2023-04-01T05:23:14;9.03;;;7.27;;
1206;SDS011;593;53.184;8.216;2023-04-01T05:25:40;9.77;;;7.97;;
1206;SDS011;593;53.184;8.216;2023-04-01T05:28:06;9.07;;;7.90;;
1206;SDS011;593;53.184;8.216;2023-04-01T05:30:31;8.97;;;7.00;;
1206;SDS011;593;53.184;8.216;2023-04-01T05:32:56;7.47;;;6.57;;
1206;SDS011;593;53.184;8.216;2023-04-01T05:35:22;11.70;;;7.97;;
1206;SDS011;593;53.184;8.216;2023-04-01T05:37:48;8.80;;;6.47;;
1206;SDS011;593;53.184;8.216;2023-04-01T05:40:13;8.97;;;6.17;;
1206;SDS011;593;53.184;8.216;2023-04-01T05:42:39;6.87;;;6.13;;
1206;SDS011;593;53.184;8.216;2023-04-01T05:45:05;8.17;;;7.00;;
1206;SDS011;593;53.184;8.216;2023-04-01T05:47:31;7.63;;;6.60;;
1206;SDS011;593;53.184;8.216;2023-04-01T05:49:56;6.53;;;5.93;;
1206;SDS011;593;53.184;8.216;2023-04-01T05:52:21;10.30;;;5.80;;
1206;SDS011;593;53.184;8.216;2023-04-01T05:54:47;7.37;;;5.27;;
1206;SDS011;593;53.184;8.216;2023-04-01T05:57:12;7.83;;;7.03;;
1206;SDS011;593;53.184;8.216;2023-04-01T05:59:37;6.57;;;5.97;;
1206;SDS011;593;53.184;8.216;2023-04-01T06:02:03;8.17;;;6.37;;
1206;SDS011;593;53.184;8.216;2023-04-01T06:04:28;10.17;;;6.37;;
1206;SDS011;593;53.184;8.216;2023-04-01T06:06:59;10.17;;;6.77;;
1206;SDS011;593;53.184;8.216;2023-04-01T06:09:28;10.80;;;6.33;;
1206;SDS011;593;53.184;8.216;2023-04-01T06:25:45;5.88;;;5.10;;
1206;SDS011;593;53.184;8.216;2023-04-01T06:28:29;6.33;;;5.40;;
1206;SDS011;593;53.184;8.216;2023-04-01T06:40:06;6.00;;;5.43;;
1206;SDS011;593;53.184;8.216;2023-04-01T06:45:39;5.97;;;5.30;;
1206;SDS011;593;53.184;8.216;2023-04-01T06:54:11;6.93;;;5.43;;
1206;SDS011;593;53.184;8.216;2023-04-01T06:56:42;4.97;;;4.47;;
1206;SDS011;593;53.184;8.216;2023-04-01T06:59:18;4.20;;;3.80;;
1206;SDS011;593;53.184;8.216;2023-04-01T07:01:47;4.93;;;4.30;;
1206;SDS011;593;53.184;8.216;2023-04-01T07:04:25;4.43;;;4.03;;
1206;SDS011;593;53.184;8.216;2023-04-01T07:07:08;5.43;;;4.70;;
1206;SDS011;593;53.184;8.216;2023-04-01T07:09:43;4.90;;;4.20;;
1206;SDS011;593;53.184;8.216;2023-04-01T07:12:19;5.10;;;4.60;;
1206;SDS011;593;53.184;8.216;2023-04-01T07:14:57;4.00;;;3.60;;
1206;SDS011;593;53.184;8.216;2023-04-01T07:17:28;3.80;;;3.50;;
1206;SDS011;593;53.184;8.216;2023-04-01T07:19:59;3.60;;;3.30;;
1206;SDS011;593;53.184;8.216;2023-04-01T07:22:38;4.00;;;3.70;;
1206;SDS011;593;53.184;8.216;2023-04-01T07:25:13;4.67;;;4.17;;
1206;SDS011;593;53.184;8.216;2023-04-01T07:27:42;3.85;;;3.45;;
1206;SDS011;593;53.184;8.216;2023-04-01T07:30:13;4.63;;;4.22;;
1206;SDS011;593;53.184;8.216;2023-04-01T07:32:47;3.90;;;3.50;;
1206;SDS011;593;53.184;8.216;2023-04-01T07:41:03;5.27;;;4.17;;
1206;SDS011;593;53.184;8.216;2023-04-01T07:46:51;5.60;;;4.80;;
1206;SDS011;593;53.184;8.216;2023-04-01T07:52:12;4.33;;;3.60;;
1206;SDS011;593;53.184;8.216;2023-04-01T07:54:50;4.93;;;4.43;;
1206;SDS011;593;53.184;8.216;2023-04-01T07:57:24;4.90;;;4.37;;
1206;SDS011;593;53.184;8.216;2023-04-01T08:00:12;4.93;;;4.53;;
1206;SDS011;593;53.184;8.216;2023-04-01T08:14:22;4.47;;;4.10;;
1206;SDS011;593;53.184;8.216;2023-04-01T08:19:59;5.30;;;4.80;;
1206;SDS011;593;53.184;8.216;2023-04-01T08:22:40;5.23;;;4.70;;
1206;SDS011;593;53.184;8.216;2023-04-01T08:25:10;4.80;;;4.40;;
1206;SDS011;593;53.184;8.216;2023-04-01T08:27:51;4.30;;;3.73;;
1206;SDS011;593;53.184;8.216;2023-04-01T08:31:07;4.60;;;4.20;;
1206;SDS011;593;53.184;8.216;2023-04-01T08:33:37;4.43;;;3.70;;
1206;SDS011;593;53.184;8.216;2023-04-01T08:36:19;4.03;;;3.67;;
1206;SDS011;593;53.184;8.216;2023-04-01T08:38:57;3.80;;;3.50;;
1206;SDS011;593;53.184;8.216;2023-04-01T08:41:49;4.23;;;3.70;;
1206;SDS011;593;53.184;8.216;2023-04-01T08:56:33;3.07;;;2.77;;
1206;SDS011;593;53.184;8.216;2023-04-01T09:08:05;3.10;;;2.70;;
1206;SDS011;593;53.184;8.216;2023-04-01T09:13:31;2.70;;;2.50;;
1206;SDS011;593;53.184;8.216;2023-04-01T09:21:06;2.50;;;2.37;;
1206;SDS011;593;53.184;8.216;2023-04-01T09:27:14;2.40;;;1.90;;
1206;SDS011;593;53.184;8.216;2023-04-01T09:40:56;0.80;;;0.80;;
1206;SDS011;593;53.184;8.216;2023-04-01T09:43:27;0.70;;;0.70;;
1206;SDS011;593;53.184;8.216;2023-04-01T09:46:06;0.60;;;0.50;;
1206;SDS011;593;53.184;8.216;2023-04-01T09:54:32;0.70;;;0.60;;
1206;SDS011;593;53.184;8.216;2023-04-01T09:57:09;0.60;;;0.60;;
1206;SDS011;593;53.184;8.216;2023-04-01T10:13:38;0.77;;;0.77;;
1206;SDS011;593;53.184;8.216;2023-04-01T10:19:10;1.50;;;0.97;;
1206;SDS011;593;53.184;8.216;2023-04-01T10:22:08;0.80;;;0.80;;
1206;SDS011;593;53.184;8.216;2023-04-01T10:30:34;1.23;;;1.13;;
1206;SDS011;593;53.184;8.216;2023-04-01T10:50:04;2.43;;;2.33;;
1206;SDS011;593;53.184;8.216;2023-04-01T10:52:37;1.73;;;1.63;;
1206;SDS011;593;53.184;8.216;2023-04-01T11:00:49;3.20;;;3.00;;
1206;SDS011;593;53.184;8.216;2023-04-01T11:19:01;3.60;;;3.30;;
1206;SDS011;593;53.184;8.216;2023-04-01T11:33:34;4.00;;;3.70;;
1206;SDS011;593;53.184;8.216;2023-04-01T11:36:08;2.87;;;2.70;;
1206;SDS011;593;53.184;8.216;2023-04-01T11:44:22;2.67;;;2.50;;
1206;SDS011;593;53.184;8.216;2023-04-01T11:49:51;3.63;;;3.40;;
1206;SDS011;593;53.184;8.216;2023-04-01T12:04:30;4.27;;;3.97;;
1206;SDS011;593;53.184;8.216;2023-04-01T12:07:17;4.70;;;4.40;;
1206;SDS011;593;53.184;8.216;2023-04-01T12:10:01;3.93;;;3.70;;
1206;SDS011;593;53.184;8.216;2023-04-01T12:12:36;3.93;;;3.73;;
1206;SDS011;593;53.184;8.216;2023-04-01T12:20:48;3.30;;;3.10;;
1206;SDS011;593;53.184;8.216;2023-04-01T12:38:20;2.33;;;2.13;;
1206;SDS011;593;53.184;8.216;2023-04-01T12:46:51;2.10;;;2.00;;
1206;SDS011;593;53.184;8.216;2023-04-01T12:52:36;2.83;;;2.63;;
1206;SDS011;593;53.184;8.216;2023-04-01T12:57:45;2.73;;;2.60;;
1206;SDS011;593;53.184;8.216;2023-04-01T13:00:39;4.30;;;3.10;;
1206;SDS011;593;53.184;8.216;2023-04-01T13:09:14;2.53;;;2.42;;
1206;SDS011;593;53.184;8.216;2023-04-01T13:20:02;2.33;;;2.23;;
1206;SDS011;593;53.184;8.216;2023-04-01T13:22:50;2.13;;;2.03;;
1206;SDS011;593;53.184;8.216;2023-04-01T13:28:15;2.08;;;1.98;;
1206;SDS011;593;53.184;8.216;2023-04-01T13:33:30;1.90;;;1.80;;
1206;SDS011;593;53.184;8.216;2023-04-01T13:46:54;1.60;;;1.50;;
1206;SDS011;593;53.184;8.216;2023-04-01T13:49:41;1.40;;;1.30;;
1206;SDS011;593;53.184;8.216;2023-04-01T13:52:29;1.60;;;1.50;;
1206;SDS011;593;53.184;8.216;2023-04-01T13:55:16;1.13;;;1.13;;
1206;SDS011;593;53.184;8.216;2023-04-01T14:00:38;1.20;;;1.20;;
1206;SDS011;593;53.184;8.216;2023-04-01T14:06:13;1.77;;;1.67;;
1206;SDS011;593;53.184;8.216;2023-04-01T14:17:05;2.00;;;1.83;;
1206;SDS011;593;53.184;8.216;2023-04-01T14:22:57;1.80;;;1.70;;
1206;SDS011;593;53.184;8.216;2023-04-01T14:37:20;2.10;;;2.00;;
1206;SDS011;593;53.184;8.216;2023-04-01T14:48:24;1.40;;;1.30;;
1206;SDS011;593;53.184;8.216;2023-04-01T14:51:08;1.70;;;1.60;;
1206;SDS011;593;53.184;8.216;2023-04-01T14:53:42;1.90;;;1.80;;
1206;SDS011;593;53.184;8.216;2023-04-01T14:56:34;2.47;;;2.27;;
1206;SDS011;593;53.184;8.216;2023-04-01T14:59:25;1.80;;;1.70;;
1206;SDS011;593;53.184;8.216;2023-04-01T15:05:10;2.17;;;2.08;;
1206;SDS011;593;53.184;8.216;2023-04-01T15:14:17;2.15;;;1.95;;
1206;SDS011;593;53.184;8.216;2023-04-01T15:20:17;2.22;;;2.10;;
1206;SDS011;593;53.184;8.216;2023-04-01T15:25:45;2.40;;;2.30;;
1206;SDS011;593;53.184;8.216;2023-04-01T15:39:40;2.60;;;2.40;;
1206;SDS011;593;53.184;8.216;2023-04-01T15:54:25;2.63;;;2.42;;
1206;SDS011;593;53.184;8.216;2023-04-01T15:59:44;3.38;;;3.17;;
1206;SDS011;593;53.184;8.216;2023-04-01T16:02:34;2.92;;;2.65;;
1206;SDS011;593;53.184;8.216;2023-04-01T16:13:04;3.13;;;2.93;;
1206;SDS011;593;53.184;8.216;2023-04-01T16:18:32;2.97;;;2.78;;
1206;SDS011;593;53.184;8.216;2023-04-01T16:27:04;3.53;;;3.22;;
1206;SDS011;593;53.184;8.216;2023-04-01T16:29:36;6.18;;;4.07;;
1206;SDS011;593;53.184;8.216;2023-04-01T16:37:38;3.33;;;3.07;;
1206;SDS011;593;53.184;8.216;2023-04-01T16:48:13;3.63;;;3.35;;
1206;SDS011;593;53.184;8.216;2023-04-01T16:53:43;3.50;;;2.35;;
1206;SDS011;593;53.184;8.216;2023-04-01T17:01:29;3.80;;;3.50;;
1206;SDS011;593;53.184;8.216;2023-04-01T17:04:10;5.75;;;3.15;;
1206;SDS011;593;53.184;8.216;2023-04-01T17:06:49;3.47;;;3.28;;
1206;SDS011;593;53.184;8.216;2023-04-01T17:12:12;3.50;;;2.83;;
1206;SDS011;593;53.184;8.216;2023-04-01T17:17:28;2.72;;;2.53;;
1206;SDS011;593;53.184;8.216;2023-04-01T18:04:29;2.90;;;2.60;;
1206;SDS011;593;53.184;8.216;2023-04-01T18:07:39;3.45;;;2.55;;
1206;SDS011;593;53.184;8.216;2023-04-01T18:10:28;3.55;;;2.40;;
1206;SDS011;593;53.184;8.216;2023-04-01T18:21:13;4.53;;;2.15;;
1206;SDS011;593;53.184;8.216;2023-04-01T18:26:10;2.37;;;2.17;;
1206;SDS011;593;53.184;8.216;2023-04-01T18:29:51;2.47;;;2.28;;
1206;SDS011;593;53.184;8.216;2023-04-01T18:32:13;2.72;;;2.30;;
1206;SDS011;593;53.184;8.216;2023-04-01T18:35:14;3.35;;;3.05;;
1206;SDS011;593;53.184;8.216;2023-04-01T18:38:04;3.55;;;2.47;;
1206;SDS011;593;53.184;8.216;2023-04-01T18:40:38;3.55;;;2.90;;
1206;SDS011;593;53.184;8.216;2023-04-01T18:45:59;2.92;;;2.72;;
1206;SDS011;593;53.184;8.216;2023-04-01T18:53:55;3.85;;;3.45;;
1206;SDS011;593;53.184;8.216;2023-04-01T18:56:25;3.63;;;3.17;;
1206;SDS011;593;53.184;8.216;2023-04-01T18:58:58;5.35;;;4.18;;
1206;SDS011;593;53.184;8.216;2023-04-01T19:01:37;3.65;;;3.35;;
1206;SDS011;593;53.184;8.216;2023-04-01T19:09:21;4.55;;;4.15;;
1206;SDS011;593;53.184;8.216;2023-04-01T19:15:25;5.50;;;3.90;;
1206;SDS011;593;53.184;8.216;2023-04-01T19:26:21;3.80;;;3.50;;
1206;SDS011;593;53.184;8.216;2023-04-01T19:53:20;3.50;;;3.20;;
1206;SDS011;593;53.184;8.216;2023-04-01T19:56:07;4.63;;;2.95;;
1206;SDS011;593;53.184;8.216;2023-04-01T20:04:44;3.50;;;3.20;;
1206;SDS011;593;53.184;8.216;2023-04-01T20:12:25;3.88;;;3.50;;
1206;SDS011;593;53.184;8.216;2023-04-01T20:15:15;3.50;;;2.47;;
1206;SDS011;593;53.184;8.216;2023-04-01T20:17:45;2.70;;;2.50;;
1206;SDS011;593;53.184;8.216;2023-04-01T20:28:00;3.65;;;2.30;;
1206;SDS011;593;53.184;8.216;2023-04-01T20:30:42;5.35;;;2.95;;
1206;SDS011;593;53.184;8.216;2023-04-01T20:46:43;3.33;;;3.03;;
1206;SDS011;593;53.184;8.216;2023-04-01T20:52:44;4.43;;;2.78;;
1206;SDS011;593;53.184;8.216;2023-04-01T20:55:22;2.70;;;2.50;;
1206;SDS011;593;53.184;8.216;2023-04-01T21:03:43;4.57;;;3.63;;
1206;SDS011;593;53.184;8.216;2023-04-01T21:06:27;5.05;;;2.75;;
1206;SDS011;593;53.184;8.216;2023-04-01T21:12:13;2.60;;;2.40;;
1206;SDS011;593;53.184;8.216;2023-04-01T21:20:22;4.07;;;2.72;;
1206;SDS011;593;53.184;8.216;2023-04-01T21:25:54;3.05;;;2.38;;
1206;SDS011;593;53.184;8.216;2023-04-01T21:28:45;3.00;;;2.78;;
1206;SDS011;593;53.184;8.216;2023-04-01T21:31:42;3.40;;;3.00;;
1206;SDS011;593;53.184;8.216;2023-04-01T21:34:43;2.80;;;2.60;;
1206;SDS011;593;53.184;8.216;2023-04-01T21:43:12;3.93;;;3.30;;
1206;SDS011;593;53.184;8.216;2023-04-01T21:59:46;3.90;;;2.92;;
1206;SDS011;593;53.184;8.216;2023-04-01T22:08:20;3.53;;;3.33;;
1206;SDS011;593;53.184;8.216;2023-04-01T22:19:19;2.78;;;2.58;;
1206;SDS011;593;53.184;8.216;2023-04-01T22:22:01;2.47;;;2.28;;
1206;SDS011;593;53.184;8.216;2023-04-01T22:27:46;2.90;;;2.70;;
1206;SDS011;593;53.184;8.216;2023-04-01T22:30:24;3.75;;;2.85;;
1206;SDS011;593;53.184;8.216;2023-04-01T22:35:55;2.53;;;2.33;;
1206;SDS011;593;53.184;8.216;2023-04-01T22:38:26;2.63;;;1.80;;
1206;SDS011;593;53.184;8.216;2023-04-01T22:48:36;2.35;;;2.15;;
1206;SDS011;593;53.184;8.216;2023-04-01T22:53:53;2.38;;;2.20;;
1206;SDS011;593;53.184;8.216;2023-04-01T22:56:38;3.67;;;2.20;;
1206;SDS011;593;53.184;8.216;2023-04-01T23:01:43;2.45;;;2.25;;
1206;SDS011;593;53.184;8.216;2023-04-01T23:04:32;4.70;;;2.17;;
1206;SDS011;593;53.184;8.216;2023-04-01T23:07:04;2.90;;;1.90;;
1206;SDS011;593;53.184;8.216;2023-04-01T23:09:50;2.17;;;2.08;;
1206;SDS011;593;53.184;8.216;2023-04-01T23:12:18;2.80;;;1.90;;
1206;SDS011;593;53.184;8.216;2023-04-01T23:14:58;2.80;;;1.90;;
1206;SDS011;593;53.184;8.216;2023-04-01T23:20:05;2.25;;;1.40;;
1206;SDS011;593;53.184;8.216;2023-04-01T23:25:52;5.25;;;1.90;;
1206;SDS011;593;53.184;8.216;2023-04-01T23:31:24;2.15;;;1.65;;
1206;SDS011;593;53.184;8.216;2023-04-01T23:33:55;2.92;;;2.20;;
1206;SDS011;593;53.184;8.216;2023-04-01T23:36:23;2.45;;;2.22;;
1206;SDS011;593;53.184;8.216;2023-04-01T23:38:49;5.95;;;2.20;;
1206;SDS011;593;53.184;8.216;2023-04-01T23:41:22;3.30;;;2.15;;
1206;SDS011;593;53.184;8.216;2023-04-01T23:43:54;3.58;;;2.08;;
1206;SDS011;593;53.184;8.216;2023-04-01T23:46:24;4.05;;;1.40;;
1206;SDS011;593;53.184;8.216;2023-04-01T23:48:51;2.65;;;1.40;;
1206;SDS011;593;53.184;8.216;2023-04-01T23:51:21;2.15;;;1.75;;
1206;SDS011;593;53.184;8.216;2023-04-01T23:53:56;2.45;;;1.52;;
1206;SDS011;593;53.184;8.216;2023-04-01T23:56:33;1.40;;;1.27;;
1206;SDS011;593;53.184;8.216;2023-04-01T23:59:17;1.10;;;1.00;;
